createdAt,value
2022-10-17T00:05:45.912Z,22.05
2022-10-17T00:12:15.053Z,22.05
2022-10-17T00:18:39.104Z,22.09
2022-10-17T00:25:07.043Z,22.04
2022-10-17T00:31:38.127Z,22.04
2022-10-17T00:38:10.432Z,22.03
2022-10-17T00:44:39.348Z,22.06
2022-10-17T00:51:19.563Z,22.05
2022-10-17T00:58:03.955Z,22.05
2022-10-17T01:04:42.198Z,22.05
2022-10-17T01:11:22.155Z,22.07
2022-10-17T01:18:23.639Z,22.02
2022-10-17T01:25:37.607Z,22
2022-10-17T01:32:43.977Z,22.03
2022-10-17T01:39:48.200Z,22.01
2022-10-17T01:46:59.235Z,21.95
2022-10-17T01:53:58.632Z,22.03
2022-10-17T02:01:05.123Z,22.04
2022-10-17T02:07:45.350Z,22.01
2022-10-17T02:14:42.464Z,21.96
2022-10-17T02:21:54.191Z,21.99
2022-10-17T02:29:14.159Z,22
2022-10-17T02:36:19.018Z,21.99
2022-10-17T02:43:02.962Z,22
2022-10-17T02:49:53.187Z,22.03
2022-10-17T02:56:57.061Z,21.99
2022-10-17T03:03:52.482Z,21.98
2022-10-17T03:10:30.530Z,22.03
2022-10-17T03:17:04.127Z,21.99
2022-10-17T03:23:27.065Z,21.95
2022-10-17T03:29:58.171Z,21.94
2022-10-17T03:36:42.109Z,21.88
2022-10-17T03:43:16.036Z,21.92
2022-10-17T03:49:36.303Z,21.9
2022-10-17T03:56:09.563Z,21.97
2022-10-17T04:02:33.437Z,21.94
2022-10-17T04:09:01.351Z,22.06
2022-10-17T04:15:33.423Z,22.17
2022-10-17T04:22:05.322Z,21.94
2022-10-17T04:28:33.028Z,21.86
2022-10-17T04:34:56.624Z,21.87
2022-10-17T04:41:37.169Z,21.9
2022-10-17T04:48:15.734Z,21.93
2022-10-17T04:54:48.154Z,21.88
2022-10-17T05:01:27.279Z,21.89
2022-10-17T05:07:59.138Z,21.9
2022-10-17T05:14:46.229Z,21.95
2022-10-17T05:21:11.357Z,21.9
2022-10-17T05:27:41.185Z,21.94
2022-10-17T05:34:15.538Z,21.91
2022-10-17T05:40:48.113Z,21.88
2022-10-17T05:47:24.213Z,21.88
2022-10-17T05:53:50.225Z,21.89
2022-10-17T06:00:33.436Z,21.94
2022-10-17T06:07:04.122Z,21.93
2022-10-17T06:13:49.360Z,22.3
2022-10-17T06:20:22.176Z,22.81
2022-10-17T06:27:00.184Z,23.04
2022-10-17T06:33:30.198Z,23.21
2022-10-17T06:40:01.610Z,23.24
2022-10-17T06:46:31.146Z,23.2
2022-10-17T06:53:02.203Z,23.23
2022-10-17T06:59:36.433Z,23.27
2022-10-17T07:06:06.387Z,23.22
2022-10-17T07:12:37.699Z,23.1
2022-10-17T07:19:14.253Z,23.05
2022-10-17T07:25:46.287Z,23.04
2022-10-17T07:32:10.472Z,23
2022-10-17T07:38:37.372Z,22.93
2022-10-17T07:45:12.353Z,22.92
2022-10-17T07:51:54.319Z,22.93
2022-10-17T07:58:23.340Z,22.88
2022-10-17T08:04:59.677Z,22.83
2022-10-17T08:11:39.330Z,22.79
2022-10-17T08:18:18.155Z,22.78
2022-10-17T08:25:01.816Z,22.83
2022-10-17T08:31:40.587Z,22.85
2022-10-17T08:38:15.997Z,22.92
2022-10-17T08:45:34.352Z,22.85
2022-10-17T08:52:41.348Z,22.92
2022-10-17T08:59:38.387Z,22.93
2022-10-17T09:06:39.764Z,22.9
2022-10-17T09:13:49.832Z,22.93
2022-10-17T09:21:00.259Z,22.91
2022-10-17T09:28:10.344Z,22.85
2022-10-17T09:35:09.503Z,22.83
2022-10-17T09:42:16.347Z,22.84
2022-10-17T09:49:25.390Z,22.74
2022-10-17T09:56:30.485Z,22.69
2022-10-17T10:03:25.037Z,22.68
2022-10-17T10:10:14.256Z,22.66
2022-10-17T10:17:21.462Z,22.67
2022-10-17T10:24:20.206Z,22.7
2022-10-17T10:31:11.763Z,22.65
2022-10-17T10:38:08.348Z,22.65
2022-10-17T10:45:09.406Z,22.63
2022-10-17T10:52:42.348Z,22.77
2022-10-17T10:59:44.400Z,22.71
2022-10-17T11:06:58.531Z,22.71
2022-10-17T11:13:53.341Z,22.66
2022-10-17T11:20:56.373Z,22.74
2022-10-17T11:28:05.597Z,22.76
2022-10-17T11:35:03.814Z,22.87
2022-10-17T11:42:18.359Z,22.91
2022-10-17T11:49:36.680Z,22.98
2022-10-17T11:56:48.139Z,22.94
2022-10-17T12:04:05.559Z,22.94
2022-10-17T12:11:12.453Z,22.86
2022-10-17T12:18:33.173Z,22.85
2022-10-17T12:26:18.571Z,22.61
2022-10-17T12:34:20.720Z,22.52
2022-10-17T12:42:10.741Z,22.52
2022-10-17T12:49:54.525Z,22.62
2022-10-17T12:57:41.388Z,22.6
2022-10-17T13:05:28.451Z,22.71
2022-10-17T13:13:07.067Z,22.67
2022-10-17T13:20:43.953Z,22.76
2022-10-17T13:28:18.686Z,22.81
2022-10-17T13:42:39.487Z,23.58
2022-10-17T13:49:46.475Z,23.77
2022-10-17T13:56:31.725Z,23.72
2022-10-17T14:03:47.122Z,23.59
2022-10-17T14:10:49.431Z,23.61
2022-10-17T14:17:47.391Z,23.5
2022-10-17T14:25:03.794Z,23.39
2022-10-17T14:33:04.432Z,23.22
2022-10-17T14:40:35.500Z,23.21
2022-10-17T14:48:17.785Z,23.17
2022-10-17T14:56:14.303Z,23.14
2022-10-17T15:04:09.695Z,23.01
2022-10-17T15:11:57.245Z,22.95
2022-10-17T15:19:40.106Z,23.03
2022-10-17T15:27:27.755Z,22.91
2022-10-17T15:35:15.888Z,22.88
2022-10-17T15:43:00.395Z,22.95
2022-10-17T15:50:41.367Z,22.88
2022-10-17T15:58:20.323Z,22.76
2022-10-17T16:06:23.950Z,22.74
2022-10-17T16:14:17.225Z,22.75
2022-10-17T16:21:56.839Z,22.76
2022-10-17T16:29:59.869Z,22.74
2022-10-17T16:38:30.726Z,22.75
2022-10-17T16:46:28.278Z,22.69
2022-10-17T16:54:25.324Z,22.64
2022-10-17T17:02:17.537Z,22.61
2022-10-17T17:10:06.888Z,22.59
2022-10-17T17:17:55.183Z,22.54
2022-10-17T17:25:45.434Z,22.55
2022-10-17T17:33:30.706Z,22.5
2022-10-17T17:41:14.410Z,22.55
2022-10-17T17:49:19.907Z,22.52
2022-10-17T17:56:55.924Z,22.49
2022-10-17T18:04:43.933Z,22.46
2022-10-17T18:12:09.359Z,22.44
2022-10-17T18:19:53.369Z,22.47
2022-10-17T18:27:29.976Z,22.49
2022-10-17T18:35:11.198Z,22.46
2022-10-17T18:42:51.308Z,22.45
2022-10-17T18:50:38.651Z,22.44
2022-10-17T18:58:20.940Z,22.46
2022-10-17T19:06:03.922Z,22.47
2022-10-17T19:13:42.003Z,22.44
2022-10-17T19:21:42.111Z,22.55
2022-10-17T19:29:16.249Z,22.6
2022-10-17T19:36:51.379Z,22.58
2022-10-17T19:44:25.697Z,22.5
2022-10-17T19:52:11.708Z,22.4
2022-10-17T20:00:00.055Z,22.36
2022-10-17T20:07:42.107Z,22.27
2022-10-17T20:15:16.130Z,22.28
2022-10-17T20:23:01.542Z,22.25
2022-10-17T20:30:46.428Z,22.24
2022-10-17T20:38:36.202Z,22.25
2022-10-17T20:46:29.688Z,22.3
2022-10-17T20:54:30.419Z,22.25
2022-10-17T21:02:16.120Z,22.26
2022-10-17T21:10:12.285Z,22.28
2022-10-17T21:18:14.743Z,22.3
2022-10-17T21:25:44.550Z,22.25
2022-10-17T21:33:28.832Z,22.25
2022-10-17T21:41:08.637Z,22.27
2022-10-17T21:49:03.158Z,22.26
2022-10-17T21:56:49.546Z,22.24
2022-10-17T22:04:31.019Z,22.24
2022-10-17T22:12:23.972Z,22.25
2022-10-17T22:20:01.513Z,22.27
2022-10-17T22:27:43.409Z,22.27
2022-10-17T22:35:22.921Z,22.25
2022-10-17T22:42:58.677Z,22.24
2022-10-17T22:50:28.472Z,22.24
2022-10-17T22:58:02.578Z,22.33
2022-10-17T23:05:39.410Z,22.3
2022-10-17T23:13:09.504Z,22.36
2022-10-17T23:20:56.650Z,22.37
2022-10-17T23:28:29.535Z,22.38
2022-10-17T23:36:02.901Z,22.25
2022-10-17T23:43:43.296Z,22.23
2022-10-17T23:51:20.675Z,22.29
2022-10-17T23:59:12.805Z,22.25
